createdAt,value
2022-10-19T00:01:21.568Z,5.40
2022-10-19T00:03:54.687Z,5.10
2022-10-19T00:06:27.324Z,5.30
2022-10-19T00:09:06.327Z,5.40
2022-10-19T00:11:36.915Z,5.50
2022-10-19T00:14:05.494Z,5.20
2022-10-19T00:16:36.908Z,5.30
2022-10-19T00:19:09.692Z,5.10
2022-10-19T00:21:37.755Z,5.00
2022-10-19T00:24:06.938Z,6.20
2022-10-19T00:26:35.042Z,5.30
2022-10-19T00:29:04.167Z,5.20
2022-10-19T00:31:31.779Z,5.70
2022-10-19T00:33:59.820Z,5.40
2022-10-19T00:36:37.579Z,4.80
2022-10-19T00:39:08.662Z,5.70
2022-10-19T00:41:37.147Z,5.30
2022-10-19T00:44:30.095Z,5.50
2022-10-19T00:47:00.798Z,5.50
2022-10-19T00:49:40.337Z,5.40
2022-10-19T00:52:13.627Z,5.80
2022-10-19T00:54:43.416Z,5.70
2022-10-19T00:57:11.255Z,5.00
2022-10-19T00:59:41.201Z,4.90
2022-10-19T01:02:08.960Z,5.30
2022-10-19T01:04:40.615Z,5.20
2022-10-19T01:07:08.513Z,5.10
2022-10-19T01:09:35.839Z,5.80
2022-10-19T01:12:30.879Z,5.10
2022-10-19T01:15:16.813Z,5.20
2022-10-19T01:18:02.731Z,5.10
2022-10-19T01:20:51.834Z,5.00
2022-10-19T01:24:00.500Z,4.90
2022-10-19T01:27:16.917Z,5.20
2022-10-19T01:30:09.546Z,5.30
2022-10-19T01:32:55.072Z,5.40
2022-10-19T01:35:57.084Z,5.20
2022-10-19T01:39:02.913Z,4.70
2022-10-19T01:41:49.561Z,4.70
2022-10-19T01:44:25.654Z,4.90
2022-10-19T01:46:57.179Z,4.60
2022-10-19T01:49:50.541Z,4.20
2022-10-19T01:52:21.139Z,5.10
2022-10-19T01:54:53.199Z,4.60
2022-10-19T01:57:29.842Z,4.20
2022-10-19T01:59:58.123Z,4.70
2022-10-19T02:02:27.414Z,5.20
2022-10-19T02:04:57.533Z,4.90
2022-10-19T02:07:25.602Z,4.50
2022-10-19T02:09:52.947Z,4.70
2022-10-19T02:12:21.800Z,5.20
2022-10-19T02:14:55.310Z,4.70
2022-10-19T02:17:29.014Z,5.10
2022-10-19T02:19:58.092Z,5.60
2022-10-19T02:22:25.567Z,4.40
2022-10-19T02:24:52.882Z,4.50
2022-10-19T02:27:20.495Z,4.80
2022-10-19T02:29:51.029Z,4.50
2022-10-19T02:32:18.668Z,4.70
2022-10-19T02:34:46.347Z,4.50
2022-10-19T02:37:13.838Z,4.90
2022-10-19T02:39:41.205Z,5.00
2022-10-19T02:42:35.478Z,4.40
2022-10-19T02:45:12.880Z,4.80
2022-10-19T02:47:48.717Z,4.70
2022-10-19T02:50:19.585Z,4.60
2022-10-19T02:52:47.080Z,5.00
2022-10-19T02:55:14.595Z,4.70
2022-10-19T02:57:42.085Z,4.80
2022-10-19T03:00:11.086Z,4.60
2022-10-19T03:02:38.733Z,4.90
2022-10-19T03:05:06.746Z,5.30
2022-10-19T03:07:34.659Z,5.20
2022-10-19T03:10:02.506Z,4.90
2022-10-19T03:12:29.796Z,4.60
2022-10-19T03:14:57.139Z,4.80
2022-10-19T03:17:24.498Z,4.90
2022-10-19T03:19:51.881Z,5.10
2022-10-19T03:22:19.213Z,4.80
2022-10-19T03:24:46.706Z,5.60
2022-10-19T03:27:14.127Z,5.60
2022-10-19T03:29:41.513Z,4.80
2022-10-19T03:32:08.899Z,4.80
2022-10-19T03:34:36.344Z,5.20
2022-10-19T03:37:03.672Z,4.90
2022-10-19T03:39:30.965Z,5.30
2022-10-19T03:41:58.286Z,5.00
2022-10-19T03:44:25.762Z,5.10
2022-10-19T03:46:53.085Z,5.40
2022-10-19T03:49:20.567Z,5.10
2022-10-19T03:51:47.998Z,5.50
2022-10-19T03:54:17.325Z,4.90
2022-10-19T03:56:44.864Z,4.90
2022-10-19T03:59:14.802Z,5.20
2022-10-19T04:01:45.028Z,5.20
2022-10-19T04:04:16.793Z,5.50
2022-10-19T04:06:47.869Z,4.60
2022-10-19T04:09:19.228Z,5.60
2022-10-19T04:11:48.037Z,4.90
2022-10-19T04:14:26.845Z,6.10
2022-10-19T04:17:03.970Z,5.60
2022-10-19T04:19:31.945Z,5.90
2022-10-19T04:21:59.609Z,5.40
2022-10-19T04:24:27.524Z,5.50
2022-10-19T04:26:56.319Z,5.60
2022-10-19T04:29:29.486Z,5.60
2022-10-19T04:31:59.404Z,5.50
2022-10-19T04:34:27.268Z,5.90
2022-10-19T04:36:54.637Z,5.50
2022-10-19T04:39:22.011Z,5.70
2022-10-19T04:41:49.377Z,5.60
2022-10-19T04:44:16.770Z,6.00
2022-10-19T04:46:44.140Z,6.80
2022-10-19T04:49:14.121Z,5.60
2022-10-19T04:51:43.937Z,6.80
2022-10-19T04:54:11.252Z,6.00
2022-10-19T04:56:39.809Z,5.40
2022-10-19T04:59:07.188Z,5.90
2022-10-19T05:01:35.704Z,5.60
2022-10-19T05:04:03.553Z,6.10
2022-10-19T05:06:31.892Z,6.30
2022-10-19T05:08:59.944Z,6.60
2022-10-19T05:11:27.846Z,6.60
2022-10-19T05:13:57.210Z,5.80
2022-10-19T05:16:25.851Z,5.80
2022-10-19T05:18:59.686Z,7.00
2022-10-19T05:21:29.084Z,5.90
2022-10-19T05:23:57.854Z,6.10
2022-10-19T05:26:27.464Z,6.30
2022-10-19T05:28:59.437Z,5.90
2022-10-19T05:31:30.425Z,6.90
2022-10-19T05:33:58.174Z,5.50
2022-10-19T05:36:32.344Z,5.80
2022-10-19T05:39:06.653Z,5.50
2022-10-19T05:41:34.560Z,5.60
2022-10-19T05:44:03.663Z,6.70
2022-10-19T05:46:33.517Z,5.60
2022-10-19T05:49:01.236Z,6.20
2022-10-19T05:51:29.207Z,6.40
2022-10-19T05:53:57.133Z,6.20
2022-10-19T05:56:28.193Z,6.10
2022-10-19T05:58:57.778Z,6.40
2022-10-19T06:01:26.449Z,6.60
2022-10-19T06:03:56.795Z,6.30
2022-10-19T06:06:25.986Z,5.80
2022-10-19T06:08:56.036Z,6.40
2022-10-19T06:11:31.034Z,6.30
2022-10-19T06:14:00.816Z,6.60
2022-10-19T06:16:31.350Z,5.80
2022-10-19T06:18:59.861Z,5.90
2022-10-19T06:21:30.545Z,6.30
2022-10-19T06:24:04.572Z,5.90
2022-10-19T06:26:34.494Z,6.10
2022-10-19T06:29:05.921Z,6.60
2022-10-19T06:31:39.274Z,6.20
2022-10-19T06:34:06.970Z,6.20
2022-10-19T06:36:35.367Z,5.70
2022-10-19T06:39:03.120Z,6.20
2022-10-19T06:41:31.993Z,6.30
2022-10-19T06:43:59.628Z,6.40
2022-10-19T06:46:27.733Z,6.00
2022-10-19T06:49:01.367Z,6.70
2022-10-19T06:51:30.909Z,6.10
2022-10-19T06:53:58.231Z,6.40
2022-10-19T06:56:26.859Z,6.30
2022-10-19T06:58:54.832Z,7.20
2022-10-19T07:01:23.166Z,6.70
2022-10-19T07:03:55.276Z,6.60
2022-10-19T07:06:23.491Z,6.20
2022-10-19T07:08:52.498Z,5.80
2022-10-19T07:11:22.595Z,6.10
2022-10-19T07:13:50.672Z,6.50
2022-10-19T07:16:21.160Z,6.30
2022-10-19T07:18:52.557Z,6.50
2022-10-19T07:21:23.000Z,6.00
2022-10-19T07:23:50.947Z,6.30
2022-10-19T07:26:26.228Z,5.80
2022-10-19T07:28:56.815Z,6.30
2022-10-19T07:31:26.686Z,7.50
2022-10-19T07:34:03.627Z,6.00
2022-10-19T07:36:34.077Z,6.80
2022-10-19T07:39:02.702Z,6.40
2022-10-19T07:41:30.050Z,6.10
2022-10-19T07:43:58.127Z,6.30
2022-10-19T07:46:29.687Z,7.00
2022-10-19T07:48:57.041Z,7.00
2022-10-19T07:51:24.809Z,6.50
2022-10-19T07:53:52.862Z,6.70
2022-10-19T07:56:25.560Z,6.20
2022-10-19T07:58:55.854Z,6.40
2022-10-19T08:01:30.077Z,6.50
2022-10-19T08:06:47.138Z,7.00
2022-10-19T08:09:33.303Z,6.50
2022-10-19T08:12:03.701Z,7.10
2022-10-19T08:14:31.581Z,7.50
2022-10-19T08:16:58.950Z,6.80
2022-10-19T08:19:26.268Z,6.90
2022-10-19T08:21:53.613Z,6.70
2022-10-19T08:24:21.081Z,7.00
2022-10-19T08:26:51.194Z,7.60
2022-10-19T08:29:20.587Z,6.80
2022-10-19T08:31:49.258Z,6.80
2022-10-19T08:34:17.098Z,6.20
2022-10-19T08:36:44.818Z,6.40
2022-10-19T08:39:13.520Z,6.00
2022-10-19T08:41:40.824Z,5.70
2022-10-19T08:44:31.521Z,5.80
2022-10-19T08:47:12.363Z,4.80
2022-10-19T08:49:41.850Z,4.70
2022-10-19T08:52:19.578Z,4.90
2022-10-19T08:54:56.728Z,4.80
2022-10-19T08:57:42.833Z,4.80
2022-10-19T09:00:35.232Z,4.90
2022-10-19T09:03:55.098Z,5.20
2022-10-19T09:06:35.051Z,5.20
2022-10-19T09:09:02.846Z,5.10
2022-10-19T09:11:36.847Z,4.50
2022-10-19T09:14:18.961Z,4.80
2022-10-19T09:16:46.435Z,4.80
2022-10-19T09:19:26.099Z,4.60
2022-10-19T09:22:02.396Z,4.50
2022-10-19T09:24:53.241Z,4.60
2022-10-19T09:27:24.608Z,4.20
2022-10-19T09:30:02.572Z,4.40
2022-10-19T09:32:38.669Z,4.40
2022-10-19T09:35:22.180Z,4.00
2022-10-19T09:37:51.283Z,4.60
2022-10-19T09:40:26.720Z,4.30
2022-10-19T09:42:58.272Z,3.70
2022-10-19T09:45:56.296Z,4.00
2022-10-19T09:48:46.682Z,4.20
2022-10-19T09:51:16.949Z,4.00
2022-10-19T09:53:46.794Z,3.90
2022-10-19T09:56:24.271Z,3.80
2022-10-19T09:58:57.280Z,4.20
2022-10-19T10:01:41.547Z,4.00
2022-10-19T10:04:18.594Z,3.80
2022-10-19T10:06:48.445Z,3.70
2022-10-19T10:09:18.659Z,4.00
2022-10-19T10:11:50.331Z,3.90
2022-10-19T10:14:27.764Z,3.60
2022-10-19T10:17:04.679Z,4.00
2022-10-19T10:19:35.603Z,3.80
2022-10-19T10:22:04.661Z,3.40
2022-10-19T10:24:34.290Z,3.30
2022-10-19T10:27:05.232Z,3.70
2022-10-19T10:29:34.881Z,3.60
2022-10-19T10:32:09.212Z,3.60
2022-10-19T10:34:53.983Z,4.00
2022-10-19T10:37:31.129Z,4.00
2022-10-19T10:40:01.968Z,4.20
2022-10-19T10:42:44.234Z,3.70
2022-10-19T10:45:33.164Z,3.50
2022-10-19T10:48:17.726Z,4.50
2022-10-19T10:50:45.401Z,3.40
2022-10-19T10:53:43.455Z,3.40
2022-10-19T10:56:27.051Z,3.60
2022-10-19T10:59:21.338Z,3.40
2022-10-19T11:05:11.093Z,3.50
2022-10-19T11:07:45.259Z,3.50
2022-10-19T11:10:29.881Z,3.50
2022-10-19T11:13:17.214Z,3.90
2022-10-19T11:16:13.369Z,4.10
2022-10-19T11:18:50.364Z,3.60
2022-10-19T11:21:27.257Z,4.30
2022-10-19T11:24:19.275Z,3.50
2022-10-19T11:27:14.620Z,3.70
2022-10-19T11:29:58.339Z,4.70
2022-10-19T11:32:37.803Z,4.40
2022-10-19T11:35:30.816Z,3.40
2022-10-19T11:38:29.911Z,3.20
2022-10-19T11:41:17.396Z,3.50
2022-10-19T11:44:03.845Z,3.50
2022-10-19T11:46:59.903Z,3.50
2022-10-19T11:50:07.025Z,5.00
2022-10-19T11:52:58.725Z,3.40
2022-10-19T11:55:41.332Z,3.70
2022-10-19T11:59:00.802Z,3.40
2022-10-19T12:02:13.736Z,3.30
2022-10-19T12:04:50.634Z,3.70
2022-10-19T12:07:35.825Z,3.10
2022-10-19T12:10:33.284Z,3.60
2022-10-19T12:13:10.551Z,3.30
2022-10-19T12:15:47.352Z,3.30
2022-10-19T12:18:43.731Z,3.50
2022-10-19T12:21:27.364Z,4.10
2022-10-19T12:23:57.571Z,3.60
2022-10-19T12:26:29.925Z,3.50
2022-10-19T12:29:03.586Z,3.80
2022-10-19T12:31:31.676Z,3.90
2022-10-19T12:34:22.242Z,3.70
2022-10-19T12:37:34.876Z,3.20
2022-10-19T12:40:21.535Z,3.70
2022-10-19T12:43:16.697Z,3.40
2022-10-19T12:45:59.523Z,3.80
2022-10-19T12:48:26.896Z,3.70
2022-10-19T12:50:54.256Z,4.00
2022-10-19T12:53:32.464Z,3.80
2022-10-19T12:56:06.675Z,3.50
2022-10-19T12:58:53.734Z,3.90
2022-10-19T13:01:26.006Z,3.70
2022-10-19T13:04:09.266Z,3.60
2022-10-19T13:06:42.221Z,4.20
2022-10-19T13:09:33.065Z,3.90
2022-10-19T13:12:21.948Z,3.60
2022-10-19T13:15:04.520Z,3.50
2022-10-19T13:17:36.448Z,3.90
2022-10-19T13:20:16.094Z,3.80
2022-10-19T13:22:51.728Z,3.80
2022-10-19T13:25:32.012Z,3.90
2022-10-19T13:28:14.223Z,3.20
2022-10-19T13:30:42.310Z,3.80
2022-10-19T13:33:33.754Z,4.00
2022-10-19T13:36:02.243Z,3.60
2022-10-19T13:39:02.668Z,4.10
2022-10-19T13:41:39.019Z,3.50
2022-10-19T13:44:35.594Z,3.50
2022-10-19T13:47:24.428Z,3.60
2022-10-19T13:50:00.466Z,4.00
2022-10-19T13:52:51.242Z,4.00
2022-10-19T13:55:21.975Z,3.90
2022-10-19T13:58:47.678Z,3.90
2022-10-19T14:01:43.559Z,3.50
2022-10-19T14:04:21.587Z,3.40
2022-10-19T14:07:20.021Z,3.40
2022-10-19T14:10:28.295Z,3.60
2022-10-19T14:13:02.154Z,3.00
2022-10-19T14:15:33.393Z,3.30
2022-10-19T14:18:03.734Z,3.30
2022-10-19T14:20:37.822Z,3.40
2022-10-19T14:23:25.112Z,2.90
2022-10-19T14:26:00.038Z,3.70
2022-10-19T14:28:28.944Z,3.50
2022-10-19T14:31:07.878Z,3.40
2022-10-19T14:33:39.556Z,3.30
2022-10-19T14:36:15.137Z,3.60
2022-10-19T14:38:43.657Z,3.20
2022-10-19T14:41:38.184Z,3.00
2022-10-19T14:44:44.637Z,3.30
2022-10-19T14:47:27.139Z,3.40
2022-10-19T14:49:54.527Z,3.10
2022-10-19T14:52:42.386Z,3.40
2022-10-19T14:55:18.774Z,3.50
2022-10-19T14:57:49.464Z,3.60
2022-10-19T15:00:23.703Z,4.00
2022-10-19T15:03:07.088Z,3.60
2022-10-19T15:05:37.522Z,3.60
2022-10-19T15:08:15.332Z,3.60
2022-10-19T15:10:45.838Z,3.80
2022-10-19T15:13:29.125Z,3.90
2022-10-19T15:15:56.566Z,3.50
2022-10-19T15:18:48.429Z,3.20
2022-10-19T15:21:19.186Z,3.60
2022-10-19T15:23:49.538Z,3.60
2022-10-19T15:26:38.012Z,3.30
2022-10-19T15:29:19.104Z,3.50
2022-10-19T15:34:25.166Z,3.40
2022-10-19T15:37:00.996Z,4.20
2022-10-19T15:39:38.958Z,3.70
2022-10-19T15:42:44.081Z,3.50
2022-10-19T15:45:47.157Z,3.70
2022-10-19T15:48:28.003Z,3.80
2022-10-19T15:50:57.004Z,4.00
2022-10-19T15:53:26.020Z,4.10
2022-10-19T15:55:53.543Z,4.10
2022-10-19T15:58:21.599Z,3.70
2022-10-19T16:00:49.039Z,3.40
2022-10-19T16:03:17.290Z,3.80
2022-10-19T16:05:44.718Z,3.30
2022-10-19T16:08:12.593Z,4.40
2022-10-19T16:10:40.139Z,3.40
2022-10-19T16:13:07.483Z,3.60
2022-10-19T16:15:34.906Z,3.50
2022-10-19T16:18:02.193Z,4.00
2022-10-19T16:20:30.224Z,3.70
2022-10-19T16:22:58.564Z,3.80
2022-10-19T16:25:27.603Z,4.40
2022-10-19T16:27:55.101Z,3.70
2022-10-19T16:30:22.468Z,4.30
2022-10-19T16:32:49.991Z,4.00
2022-10-19T16:35:17.331Z,4.80
2022-10-19T16:37:44.727Z,5.20
2022-10-19T16:40:12.219Z,6.20
2022-10-19T16:42:39.629Z,5.40
2022-10-19T16:45:07.761Z,4.60
2022-10-19T16:47:35.078Z,4.60
2022-10-19T16:50:05.118Z,4.70
2022-10-19T16:52:33.280Z,4.70
2022-10-19T16:55:01.078Z,4.90
2022-10-19T16:57:28.414Z,5.00
2022-10-19T16:59:55.950Z,5.30
2022-10-19T17:02:23.484Z,4.70
2022-10-19T17:04:51.010Z,5.60
2022-10-19T17:07:19.028Z,5.00
2022-10-19T17:09:47.947Z,5.30
2022-10-19T17:12:17.472Z,5.50
2022-10-19T17:14:44.927Z,5.40
2022-10-19T17:17:12.842Z,5.40
2022-10-19T17:19:40.474Z,6.10
2022-10-19T17:22:07.819Z,6.20
2022-10-19T17:24:37.305Z,5.70
2022-10-19T17:27:04.857Z,6.10
2022-10-19T17:29:43.112Z,5.70
2022-10-19T17:32:11.281Z,6.30
2022-10-19T17:34:42.112Z,6.30
2022-10-19T17:37:10.583Z,6.60
2022-10-19T17:39:38.113Z,6.40
2022-10-19T17:42:05.743Z,6.60
2022-10-19T17:45:14.773Z,6.60
2022-10-19T17:47:55.517Z,7.00
2022-10-19T17:50:33.392Z,7.30
2022-10-19T17:53:01.946Z,6.10
2022-10-19T17:55:40.178Z,6.70
2022-10-19T17:58:11.554Z,6.40
2022-10-19T18:01:04.391Z,7.50
2022-10-19T18:03:34.792Z,7.20
2022-10-19T18:06:09.883Z,7.20
2022-10-19T18:08:42.337Z,6.90
2022-10-19T18:11:15.619Z,7.30
2022-10-19T18:13:43.271Z,6.90
2022-10-19T18:16:24.238Z,6.80
2022-10-19T18:18:56.458Z,6.90
2022-10-19T18:21:28.583Z,6.90
2022-10-19T18:23:58.782Z,6.90
2022-10-19T18:26:30.551Z,6.90
2022-10-19T18:29:01.223Z,6.50
2022-10-19T18:31:31.478Z,7.60
2022-10-19T18:34:02.475Z,7.30
2022-10-19T18:36:31.228Z,6.70
2022-10-19T18:39:02.455Z,6.80
2022-10-19T18:41:30.466Z,7.40
2022-10-19T18:44:03.684Z,7.40
2022-10-19T18:46:33.808Z,7.90
2022-10-19T18:49:04.742Z,7.60
2022-10-19T18:51:32.573Z,7.80
2022-10-19T18:54:00.393Z,7.30
2022-10-19T18:56:29.452Z,7.60
2022-10-19T18:58:57.535Z,6.90
2022-10-19T19:01:28.118Z,7.20
2022-10-19T19:03:58.794Z,8.30
2022-10-19T19:06:30.414Z,8.40
2022-10-19T19:09:00.395Z,8.10
2022-10-19T19:11:36.071Z,8.20
2022-10-19T19:14:14.410Z,7.00
2022-10-19T19:16:44.377Z,7.10
2022-10-19T19:19:14.558Z,7.70
2022-10-19T19:21:44.370Z,6.70
2022-10-19T19:24:15.851Z,6.90
2022-10-19T19:26:51.237Z,6.80
2022-10-19T19:29:19.935Z,6.80
2022-10-19T19:31:48.203Z,7.30
2022-10-19T19:34:15.635Z,9.10
2022-10-19T19:36:47.961Z,9.00
2022-10-19T19:39:20.537Z,8.80
2022-10-19T19:41:49.804Z,10.00
2022-10-19T19:44:18.414Z,9.60
2022-10-19T19:46:46.445Z,10.40
2022-10-19T19:49:15.584Z,9.60
2022-10-19T19:51:43.194Z,9.40
2022-10-19T19:54:11.516Z,8.90
2022-10-19T19:56:40.088Z,8.70
2022-10-19T19:59:07.476Z,7.80
2022-10-19T20:01:37.370Z,7.60
2022-10-19T20:04:06.254Z,6.50
2022-10-19T20:06:36.426Z,7.00
2022-10-19T20:09:05.726Z,7.00
2022-10-19T20:11:36.079Z,7.20
2022-10-19T20:14:05.736Z,6.80
2022-10-19T20:16:33.611Z,8.50
2022-10-19T20:19:13.580Z,7.90
2022-10-19T20:21:41.972Z,8.70
2022-10-19T20:24:10.407Z,8.10
2022-10-19T20:26:38.522Z,7.50
2022-10-19T20:29:06.653Z,8.30
2022-10-19T20:31:39.427Z,7.90
2022-10-19T20:34:13.877Z,8.20
2022-10-19T20:36:41.736Z,8.20
2022-10-19T20:39:10.046Z,7.10
2022-10-19T20:41:37.468Z,7.30
2022-10-19T20:44:05.165Z,7.50
2022-10-19T20:46:32.782Z,6.50
2022-10-19T20:49:01.662Z,6.40
2022-10-19T20:51:32.938Z,6.90
2022-10-19T20:54:03.463Z,7.90
2022-10-19T20:56:34.802Z,7.00
2022-10-19T20:59:07.271Z,7.30
2022-10-19T21:01:37.298Z,6.60
2022-10-19T21:04:08.207Z,6.50
2022-10-19T21:06:42.136Z,7.40
2022-10-19T21:09:11.352Z,7.00
2022-10-19T21:11:41.863Z,7.60
2022-10-19T21:14:15.408Z,7.10
2022-10-19T21:16:43.524Z,6.50
2022-10-19T21:19:19.681Z,6.20
2022-10-19T21:21:55.349Z,6.50
2022-10-19T21:24:27.127Z,7.00
2022-10-19T21:26:54.644Z,7.20
2022-10-19T21:29:21.958Z,7.30
2022-10-19T21:31:52.248Z,7.10
2022-10-19T21:34:23.532Z,7.00
2022-10-19T21:39:19.189Z,6.40
2022-10-19T21:41:47.969Z,6.30
2022-10-19T21:44:17.135Z,6.80
2022-10-19T21:46:47.177Z,6.10
2022-10-19T21:49:15.460Z,6.30
2022-10-19T21:51:54.250Z,7.00
2022-10-19T21:54:25.235Z,6.90
2022-10-19T21:59:20.716Z,6.40
2022-10-19T22:01:48.175Z,7.10
2022-10-19T22:04:17.749Z,6.20
2022-10-19T22:06:45.192Z,6.90
2022-10-19T22:09:20.276Z,6.30
2022-10-19T22:11:48.620Z,6.90
2022-10-19T22:14:17.071Z,6.90
2022-10-19T22:16:44.873Z,6.30
2022-10-19T22:19:12.959Z,6.50
2022-10-19T22:21:40.470Z,6.40
2022-10-19T22:24:13.253Z,7.00
2022-10-19T22:26:46.119Z,6.40
2022-10-19T22:29:13.893Z,6.60
2022-10-19T22:31:41.983Z,6.80
2022-10-19T22:34:14.116Z,6.60
2022-10-19T22:36:41.993Z,6.80
2022-10-19T22:39:09.775Z,6.40
2022-10-19T22:41:37.287Z,6.70
2022-10-19T22:44:05.567Z,6.60
2022-10-19T22:46:32.951Z,6.60
2022-10-19T22:49:00.692Z,7.70
2022-10-19T22:51:28.269Z,7.20
2022-10-19T22:53:55.762Z,6.40
2022-10-19T22:56:23.749Z,7.30
2022-10-19T22:58:51.078Z,7.20
2022-10-19T23:01:18.822Z,6.40
2022-10-19T23:03:46.196Z,6.70
2022-10-19T23:06:15.467Z,6.60
2022-10-19T23:08:44.216Z,6.40
2022-10-19T23:11:12.152Z,6.30
2022-10-19T23:13:39.846Z,7.10
2022-10-19T23:16:08.505Z,6.10
2022-10-19T23:18:39.287Z,6.40
2022-10-19T23:21:11.639Z,6.50
2022-10-19T23:23:40.032Z,6.50
2022-10-19T23:26:17.690Z,6.30
2022-10-19T23:28:49.327Z,6.40
2022-10-19T23:31:23.434Z,6.30
2022-10-19T23:33:52.535Z,6.40
2022-10-19T23:36:23.337Z,5.80
2022-10-19T23:38:52.784Z,8.10
2022-10-19T23:41:21.580Z,7.50
2022-10-19T23:43:49.217Z,6.60
2022-10-19T23:46:16.953Z,7.00
2022-10-19T23:48:44.323Z,6.70
2022-10-19T23:51:15.407Z,6.20
2022-10-19T23:53:45.342Z,5.90
2022-10-19T23:56:25.411Z,6.60
2022-10-19T23:58:54.438Z,6.80
